Terminal Aerodrome Forecast
Issued by NWS

Home | Current Version | Previous Version | Graphics & Text | Print | Product List | Glossary On
Versions: 1 2 3 4 5 6 7 8 9 10 11 12 13 14 15 16 17 18
000
FTUS43 KGRB 261737
TAFAUW
TAF
KAUW 261737Z 2618/2718 29006KT P6SM FEW030 BKN200
     FM262000 23005KT P6SM SCT040 BKN150
     FM270200 VRB03KT P6SM SCT100 BKN120
     FM271000 12003KT 6SM -RA BR SCT020 OVC060
     FM271200 09006KT 3SM -RA BR BKN015
     FM271700 10006KT 6SM -DZ BR BKN015=

USA.gov is the U.S. government's official web portal to all federal, state and local government web resources and services.